createdAt,value
2019-04-01T00:01:40.548Z,13.03
2019-04-01T00:04:12.603Z,12.47
2019-04-01T00:06:44.902Z,12.03
2019-04-01T00:09:17.256Z,12.17
2019-04-01T00:11:49.386Z,12.17
2019-04-01T00:14:21.829Z,12.07
2019-04-01T00:16:55.372Z,13.80
2019-04-01T00:19:27.573Z,13.30
2019-04-01T00:21:59.758Z,13.47
2019-04-01T00:24:32.243Z,12.73
2019-04-01T00:27:04.383Z,13.63
2019-04-01T00:29:36.776Z,13.90
2019-04-01T00:32:08.511Z,13.43
2019-04-01T00:34:40.447Z,13.73
2019-04-01T00:37:12.526Z,13.68
2019-04-01T00:39:44.567Z,13.57
2019-04-01T00:42:21.919Z,14.63
2019-04-01T00:44:55.150Z,14.17
2019-04-01T00:47:27.480Z,14.33
2019-04-01T00:49:59.909Z,13.50
2019-04-01T00:52:32.310Z,12.37
2019-04-01T00:55:04.509Z,14.57
2019-04-01T00:57:38.163Z,14.43
2019-04-01T01:00:10.809Z,14.13
2019-04-01T01:02:43.291Z,13.27
2019-04-01T01:05:15.763Z,13.37
2019-04-01T01:07:48.241Z,12.60
2019-04-01T01:10:20.580Z,13.80
2019-04-01T01:12:53.276Z,12.70
2019-04-01T01:15:25.357Z,12.87
2019-04-01T01:17:57.607Z,12.03
2019-04-01T01:20:29.971Z,12.97
2019-04-01T01:23:02.776Z,12.30
2019-04-01T01:25:35.001Z,11.37
2019-04-01T01:28:06.810Z,10.60
2019-04-01T01:30:38.978Z,10.73
2019-04-01T01:33:11.328Z,9.70
2019-04-01T01:35:43.514Z,11.57
2019-04-01T01:38:16.453Z,10.03
2019-04-01T01:40:49.331Z,9.23
2019-04-01T01:43:21.595Z,9.60
2019-04-01T01:45:53.920Z,9.33
2019-04-01T01:48:27.130Z,13.17
2019-04-01T01:50:59.147Z,12.80
2019-04-01T01:53:32.359Z,11.00
2019-04-01T01:56:05.064Z,10.73
2019-04-01T01:58:37.853Z,11.13
2019-04-01T02:01:11.787Z,10.07
2019-04-01T02:03:44.493Z,12.87
2019-04-01T02:06:16.704Z,11.97
2019-04-01T02:08:48.814Z,11.10
2019-04-01T02:11:21.134Z,12.27
2019-04-01T02:13:53.146Z,12.40
2019-04-01T02:16:25.399Z,11.97
2019-04-01T02:18:57.734Z,11.80
2019-04-01T02:21:29.937Z,14.63
2019-04-01T02:24:02.067Z,13.87
2019-04-01T02:26:34.323Z,9.83
2019-04-01T02:29:07.936Z,9.47
2019-04-01T02:31:40.106Z,10.33
2019-04-01T02:34:11.786Z,11.23
2019-04-01T02:36:44.892Z,11.87
2019-04-01T02:39:17.272Z,11.48
2019-04-01T02:41:49.538Z,10.17
2019-04-01T02:44:22.264Z,9.20
2019-04-01T02:46:55.334Z,10.73
2019-04-01T02:49:27.535Z,11.63
2019-04-01T02:51:59.487Z,11.60
2019-04-01T02:54:31.441Z,9.30
2019-04-01T02:57:03.467Z,9.53
2019-04-01T02:59:35.569Z,11.90
2019-04-01T03:02:07.835Z,15.47
2019-04-01T03:04:39.953Z,8.57
2019-04-01T03:07:12.576Z,10.75
2019-04-01T03:09:45.052Z,11.33
2019-04-01T03:12:17.290Z,10.78
2019-04-01T03:14:49.558Z,9.43
2019-04-01T03:17:22.359Z,8.53
2019-04-01T03:19:55.773Z,9.03
2019-04-01T03:22:29.114Z,8.20
2019-04-01T03:25:01.274Z,8.17
2019-04-01T03:27:34.413Z,7.03
2019-04-01T03:30:06.887Z,7.70
2019-04-01T03:32:44.731Z,7.45
2019-04-01T03:35:14.433Z,11.38
2019-04-01T03:37:46.889Z,8.23
2019-04-01T03:40:19.108Z,9.73
2019-04-01T03:42:51.151Z,7.23
2019-04-01T03:45:23.709Z,8.77
2019-04-01T03:47:56.947Z,9.70
2019-04-01T03:50:29.081Z,10.23
2019-04-01T03:53:01.619Z,13.07
2019-04-01T03:55:34.213Z,7.87
2019-04-01T03:58:06.260Z,8.00
2019-04-01T04:00:38.362Z,8.73
2019-04-01T04:03:10.602Z,8.28
2019-04-01T04:05:43.176Z,7.40
2019-04-01T04:08:15.508Z,10.13
2019-04-01T04:10:49.061Z,9.50
2019-04-01T04:13:21.183Z,11.85
2019-04-01T04:15:53.297Z,8.88
2019-04-01T04:18:25.319Z,7.27
2019-04-01T04:20:57.635Z,8.10
2019-04-01T04:23:29.605Z,6.83
2019-04-01T04:26:02.968Z,10.50
2019-04-01T04:28:35.889Z,8.33
2019-04-01T04:31:07.544Z,9.37
2019-04-01T04:33:39.780Z,10.00
2019-04-01T04:36:11.737Z,9.07
2019-04-01T04:38:45.056Z,8.37
2019-04-01T04:41:17.151Z,9.73
2019-04-01T04:43:49.127Z,9.27
2019-04-01T04:46:21.595Z,9.50
2019-04-01T04:48:53.561Z,9.57
2019-04-01T04:51:26.306Z,8.90
2019-04-01T04:53:58.568Z,7.77
2019-04-01T04:56:30.823Z,9.70
2019-04-01T04:59:03.115Z,9.50
2019-04-01T05:01:35.673Z,13.53
2019-04-01T05:04:07.907Z,10.17
2019-04-01T05:06:40.198Z,12.07
2019-04-01T05:09:13.054Z,14.20
2019-04-01T05:11:45.152Z,7.87
2019-04-01T05:14:17.189Z,9.47
2019-04-01T05:16:48.792Z,8.87
2019-04-01T05:19:20.626Z,11.13
2019-04-01T05:21:53.314Z,10.33
2019-04-01T05:24:26.894Z,10.77
2019-04-01T05:26:59.914Z,11.57
2019-04-01T05:29:32.640Z,9.70
2019-04-01T05:32:06.514Z,10.17
2019-04-01T05:34:41.577Z,7.63
2019-04-01T05:37:13.583Z,10.28
2019-04-01T05:39:46.711Z,13.00
2019-04-01T05:42:18.746Z,8.95
2019-04-01T05:44:51.600Z,12.67
2019-04-01T05:47:30.054Z,13.72
2019-04-01T05:50:03.053Z,13.13
2019-04-01T05:52:35.241Z,9.30
2019-04-01T05:55:09.119Z,9.87
2019-04-01T05:57:41.333Z,9.70
2019-04-01T06:00:20.806Z,10.90
2019-04-01T06:02:52.616Z,8.57
2019-04-01T06:05:24.704Z,10.57
2019-04-01T06:07:56.880Z,11.03
2019-04-01T06:10:29.169Z,9.70
2019-04-01T06:13:01.509Z,11.93
2019-04-01T06:15:33.707Z,8.87
2019-04-01T06:18:07.103Z,9.73
2019-04-01T06:20:41.235Z,9.00
2019-04-01T06:23:15.040Z,11.30
2019-04-01T06:25:47.083Z,7.67
2019-04-01T06:28:19.399Z,10.13
2019-04-01T06:30:53.866Z,10.97
2019-04-01T06:33:25.934Z,11.43
2019-04-01T06:35:58.251Z,8.03
2019-04-01T06:38:30.758Z,10.37
2019-04-01T06:41:02.916Z,6.80
2019-04-01T06:43:37.138Z,10.30
2019-04-01T06:46:09.816Z,9.60
2019-04-01T06:48:43.138Z,6.70
2019-04-01T06:51:15.353Z,14.38
2019-04-01T06:53:48.720Z,7.53
2019-04-01T06:56:21.169Z,12.80
2019-04-01T06:58:53.091Z,14.33
2019-04-01T07:01:25.058Z,12.20
2019-04-01T07:03:57.280Z,13.53
2019-04-01T07:06:29.212Z,11.57
2019-04-01T07:09:02.142Z,15.80
2019-04-01T07:11:34.606Z,10.97
2019-04-01T07:14:07.027Z,9.07
2019-04-01T07:16:40.106Z,6.27
2019-04-01T07:19:12.669Z,8.50
2019-04-01T07:21:44.730Z,6.13
2019-04-01T07:24:16.876Z,8.60
2019-04-01T07:26:49.901Z,7.73
2019-04-01T07:29:22.009Z,12.15
2019-04-01T07:31:54.075Z,10.78
2019-04-01T07:34:26.489Z,5.57
2019-04-01T07:36:58.402Z,8.43
2019-04-01T07:39:31.373Z,9.93
2019-04-01T07:42:03.672Z,7.83
2019-04-01T07:44:35.516Z,6.63
2019-04-01T07:47:07.650Z,10.73
2019-04-01T07:49:39.831Z,7.13
2019-04-01T07:52:12.151Z,8.58
2019-04-01T07:54:45.037Z,5.30
2019-04-01T07:57:17.048Z,6.43
2019-04-01T07:59:49.115Z,9.25
2019-04-01T08:02:21.338Z,6.85
2019-04-01T08:04:53.504Z,9.53
2019-04-01T08:07:25.420Z,7.47
2019-04-01T08:09:57.232Z,4.67
2019-04-01T08:12:28.926Z,9.20
2019-04-01T08:15:00.593Z,6.20
2019-04-01T08:17:32.819Z,5.97
2019-04-01T08:20:05.179Z,12.33
2019-04-01T08:22:37.176Z,9.13
2019-04-01T08:25:09.071Z,6.70
2019-04-01T08:27:40.890Z,5.30
2019-04-01T08:30:13.270Z,7.30
2019-04-01T08:32:44.925Z,6.80
2019-04-01T08:35:16.554Z,8.83
2019-04-01T08:37:49.097Z,7.93
2019-04-01T08:40:21.636Z,7.10
2019-04-01T08:42:54.338Z,8.03
2019-04-01T08:45:26.744Z,7.77
2019-04-01T08:47:58.868Z,4.57
2019-04-01T08:50:30.940Z,6.17
2019-04-01T08:53:02.989Z,6.07
2019-04-01T08:55:36.431Z,4.70
2019-04-01T08:58:08.627Z,3.13
2019-04-01T09:00:41.300Z,5.97
2019-04-01T09:03:15.651Z,4.37
2019-04-01T09:05:48.041Z,8.27
2019-04-01T09:08:21.811Z,4.70
2019-04-01T09:10:54.225Z,5.87
2019-04-01T09:13:26.283Z,6.20
2019-04-01T09:15:59.123Z,13.33
2019-04-01T09:18:31.339Z,8.85
2019-04-01T09:21:03.984Z,7.37
2019-04-01T09:23:36.284Z,4.47
2019-04-01T09:26:09.870Z,11.93
2019-04-01T09:28:45.342Z,6.83
2019-04-01T09:31:17.443Z,5.10
2019-04-01T09:33:51.648Z,8.30
2019-04-01T09:36:24.425Z,5.13
2019-04-01T09:38:56.882Z,5.77
2019-04-01T09:41:29.965Z,10.00
2019-04-01T09:44:02.522Z,6.77
2019-04-01T09:46:35.662Z,4.93
2019-04-01T09:49:07.480Z,8.83
2019-04-01T09:51:48.337Z,9.47
2019-04-01T09:54:13.341Z,5.58
2019-04-01T09:56:45.534Z,19.73
2019-04-01T09:59:17.775Z,4.83
2019-04-01T10:01:49.647Z,8.93
2019-04-01T10:04:22.052Z,6.87
2019-04-01T10:06:55.190Z,5.23
2019-04-01T10:09:27.068Z,4.80
2019-04-01T10:11:58.982Z,3.43
2019-04-01T10:14:31.018Z,5.63
2019-04-01T10:17:03.646Z,8.43
2019-04-01T10:19:35.648Z,5.17
2019-04-01T10:22:08.515Z,4.77
2019-04-01T10:24:42.146Z,5.57
2019-04-01T10:27:14.718Z,7.55
2019-04-01T10:29:46.743Z,5.27
2019-04-01T10:32:18.881Z,4.37
2019-04-01T10:34:51.333Z,7.63
2019-04-01T10:37:23.453Z,8.47
2019-04-01T10:39:55.968Z,5.97
2019-04-01T10:42:29.247Z,5.27
2019-04-01T10:45:01.421Z,4.17
2019-04-01T10:47:34.021Z,4.17
2019-04-01T10:50:08.593Z,4.42
2019-04-01T10:52:44.029Z,5.17
2019-04-01T10:55:16.749Z,5.83
2019-04-01T10:57:49.361Z,3.62
2019-04-01T11:00:22.146Z,5.87
2019-04-01T11:02:54.714Z,3.30
2019-04-01T11:05:26.943Z,5.43
2019-04-01T11:07:59.059Z,6.73
2019-04-01T11:10:31.072Z,4.60
2019-04-01T11:13:03.335Z,5.13
2019-04-01T11:15:35.613Z,6.63
2019-04-01T11:18:07.791Z,6.70
2019-04-01T11:20:39.483Z,5.87
2019-04-01T11:23:11.701Z,6.03
2019-04-01T11:25:43.776Z,8.17
2019-04-01T11:28:15.488Z,4.23
2019-04-01T11:30:47.717Z,4.83
2019-04-01T11:33:19.919Z,4.58
2019-04-01T11:35:52.904Z,4.63
2019-04-01T11:38:24.846Z,6.77
2019-04-01T11:40:56.908Z,5.60
2019-04-01T11:43:28.838Z,4.93
2019-04-01T11:46:00.779Z,8.07
2019-04-01T11:48:33.208Z,4.67
2019-04-01T11:51:06.246Z,4.30
2019-04-01T11:53:38.195Z,13.10
2019-04-01T11:56:10.909Z,9.27
2019-04-01T11:58:44.263Z,7.03
2019-04-01T12:01:16.155Z,5.93
2019-04-01T12:03:48.465Z,4.13
2019-04-01T12:06:21.279Z,5.50
2019-04-01T12:08:53.588Z,10.57
2019-04-01T12:11:26.466Z,6.30
2019-04-01T12:13:59.459Z,4.23
2019-04-01T12:16:31.453Z,4.07
2019-04-01T12:19:03.687Z,6.60
2019-04-01T12:21:41.279Z,4.97
2019-04-01T12:24:11.120Z,4.37
2019-04-01T12:26:44.355Z,4.00
2019-04-01T12:29:16.444Z,3.85
2019-04-01T12:31:48.916Z,3.70
2019-04-01T12:34:21.623Z,4.15
2019-04-01T12:36:53.977Z,5.93
2019-04-01T12:39:27.524Z,5.12
2019-04-01T12:41:59.914Z,6.37
2019-04-01T12:44:31.866Z,3.53
2019-04-01T12:47:06.656Z,4.78
2019-04-01T12:49:38.878Z,3.77
2019-04-01T12:52:10.505Z,5.50
2019-04-01T12:54:42.305Z,10.37
2019-04-01T12:57:14.299Z,5.40
2019-04-01T12:59:46.256Z,4.60
2019-04-01T13:02:20.270Z,10.07
2019-04-01T13:04:52.716Z,5.25
2019-04-01T13:07:24.631Z,6.20
2019-04-01T13:09:56.842Z,6.40
2019-04-01T13:12:28.874Z,4.12
2019-04-01T13:15:00.833Z,5.03
2019-04-01T13:17:33.869Z,3.43
2019-04-01T13:20:06.994Z,4.00
2019-04-01T13:22:39.170Z,4.17
2019-04-01T13:25:11.230Z,6.83
2019-04-01T13:27:42.915Z,8.80
2019-04-01T13:30:14.770Z,7.90
2019-04-01T13:32:46.489Z,5.20
2019-04-01T13:35:19.353Z,4.50
2019-04-01T13:37:51.065Z,5.07
2019-04-01T13:40:22.795Z,6.20
2019-04-01T13:42:54.650Z,3.77
2019-04-01T13:45:31.379Z,3.07
2019-04-01T13:48:00.201Z,3.57
2019-04-01T13:50:32.659Z,6.73
2019-04-01T13:53:04.632Z,3.20
2019-04-01T13:55:38.130Z,13.87
2019-04-01T13:58:10.940Z,10.33
2019-04-01T14:00:42.664Z,3.23
2019-04-01T14:03:14.780Z,2.37
2019-04-01T14:05:46.732Z,5.10
2019-04-01T14:08:19.532Z,4.07
2019-04-01T14:10:52.075Z,16.67
2019-04-01T14:13:25.782Z,5.17
2019-04-01T14:15:58.461Z,3.80
2019-04-01T14:18:30.550Z,5.63
2019-04-01T14:21:15.177Z,4.73
2019-04-01T14:23:36.682Z,7.63
2019-04-01T14:26:08.916Z,3.33
2019-04-01T14:28:41.629Z,3.70
2019-04-01T14:31:13.775Z,8.35
2019-04-01T14:33:47.421Z,2.97
2019-04-01T14:36:19.227Z,10.58
2019-04-01T14:38:52.156Z,2.60
2019-04-01T14:41:24.192Z,4.23
2019-04-01T14:43:57.146Z,1.90
2019-04-01T14:46:29.464Z,3.73
2019-04-01T14:49:02.751Z,2.83
2019-04-01T14:51:36.679Z,3.60
2019-04-01T14:54:08.451Z,4.33
2019-04-01T14:56:40.608Z,3.77
2019-04-01T14:59:12.859Z,5.33
2019-04-01T15:01:45.203Z,2.97
2019-04-01T15:04:17.346Z,11.12
2019-04-01T15:06:49.617Z,4.13
2019-04-01T15:09:23.434Z,10.28
2019-04-01T15:11:55.535Z,7.07
2019-04-01T15:14:27.570Z,2.87
2019-04-01T15:16:59.750Z,3.40
2019-04-01T15:19:32.121Z,3.07
2019-04-01T15:22:04.578Z,6.90
2019-04-01T15:24:37.614Z,2.90
2019-04-01T15:27:09.715Z,6.27
2019-04-01T15:29:41.510Z,4.60
2019-04-01T15:32:13.393Z,4.20
2019-04-01T15:34:45.305Z,6.03
2019-04-01T15:37:18.415Z,5.72
2019-04-01T15:39:50.438Z,3.40
2019-04-01T15:42:23.491Z,4.93
2019-04-01T15:44:55.559Z,2.93
2019-04-01T15:47:27.744Z,4.00
2019-04-01T15:49:59.891Z,4.40
2019-04-01T15:52:31.983Z,2.97
2019-04-01T15:55:04.033Z,5.33
2019-04-01T15:57:37.365Z,3.03
2019-04-01T16:00:10.006Z,6.60
2019-04-01T16:02:42.406Z,15.00
2019-04-01T16:05:14.643Z,3.50
2019-04-01T16:07:47.020Z,3.27
2019-04-01T16:10:20.905Z,4.70
2019-04-01T16:12:58.297Z,6.07
2019-04-01T16:15:32.255Z,9.10
2019-04-01T16:18:05.790Z,3.27
2019-04-01T16:20:39.299Z,4.03
2019-04-01T16:23:18.928Z,9.57
2019-04-01T16:25:52.412Z,5.20
2019-04-01T16:28:25.842Z,4.25
2019-04-01T16:30:58.832Z,6.10
2019-04-01T16:33:32.185Z,4.50
2019-04-01T16:36:21.051Z,4.17
2019-04-01T16:38:53.679Z,3.60
2019-04-01T16:41:25.898Z,7.77
2019-04-01T16:44:01.259Z,3.90
2019-04-01T16:46:33.725Z,4.63
2019-04-01T16:49:07.500Z,5.73
2019-04-01T16:51:42.090Z,12.07
2019-04-01T16:54:14.124Z,6.40
2019-04-01T16:56:45.829Z,5.77
2019-04-01T16:59:17.541Z,7.30
2019-04-01T17:01:49.215Z,8.87
2019-04-01T17:04:20.888Z,5.12
2019-04-01T17:06:52.566Z,9.87
2019-04-01T17:09:24.434Z,10.23
2019-04-01T17:11:59.041Z,4.70
2019-04-01T17:14:31.031Z,6.57
2019-04-01T17:17:02.685Z,8.60
2019-04-01T17:19:34.597Z,5.90
2019-04-01T17:22:06.618Z,6.13
2019-04-01T17:24:38.702Z,7.20
2019-04-01T17:27:13.952Z,7.03
2019-04-01T17:29:47.081Z,10.27
2019-04-01T17:32:19.292Z,7.62
2019-04-01T17:34:51.606Z,10.23
2019-04-01T17:37:23.995Z,10.00
2019-04-01T17:39:55.925Z,10.67
2019-04-01T17:42:27.746Z,10.47
2019-04-01T17:45:01.950Z,16.30
2019-04-01T17:47:35.209Z,10.57
2019-04-01T17:50:07.368Z,9.87
2019-04-01T17:52:39.636Z,11.07
2019-04-01T17:55:12.515Z,14.45
2019-04-01T17:57:44.174Z,11.47
2019-04-01T18:00:21.093Z,11.90
2019-04-01T18:02:52.839Z,10.90
2019-04-01T18:05:25.029Z,11.90
2019-04-01T18:07:56.741Z,11.20
2019-04-01T18:10:28.610Z,12.07
2019-04-01T18:13:00.274Z,14.50
2019-04-01T18:15:31.942Z,11.77
2019-04-01T18:18:03.833Z,11.10
2019-04-01T18:20:35.550Z,13.27
2019-04-01T18:23:07.470Z,12.80
2019-04-01T18:25:39.622Z,12.23
2019-04-01T18:28:12.951Z,15.10
2019-04-01T18:30:45.296Z,16.53
2019-04-01T18:33:19.817Z,14.47
2019-04-01T18:35:51.984Z,11.67
2019-04-01T18:38:24.100Z,16.40
2019-04-01T18:40:56.737Z,13.13
2019-04-01T18:43:29.025Z,14.87
2019-04-01T18:46:00.818Z,11.20
2019-04-01T18:48:32.596Z,25.10
2019-04-01T18:51:04.685Z,15.33
2019-04-01T18:53:36.619Z,10.87
2019-04-01T18:56:08.281Z,12.57
2019-04-01T18:58:40.085Z,14.40
2019-04-01T19:01:11.947Z,14.25
2019-04-01T19:03:43.881Z,10.43
2019-04-01T19:06:15.629Z,12.95
2019-04-01T19:08:47.401Z,11.60
2019-04-01T19:11:19.122Z,10.38
2019-04-01T19:13:51.222Z,9.90
2019-04-01T19:16:23.239Z,13.50
2019-04-01T19:18:54.999Z,15.33
2019-04-01T19:21:26.751Z,10.53
2019-04-01T19:23:59.198Z,10.07
2019-04-01T19:26:31.735Z,11.10
2019-04-01T19:29:03.451Z,11.23
2019-04-01T19:31:35.088Z,10.47
2019-04-01T19:34:07.347Z,11.27
2019-04-01T19:36:40.722Z,9.97
2019-04-01T19:39:12.731Z,12.93
2019-04-01T19:41:48.116Z,12.70
2019-04-01T19:44:26.866Z,12.13
2019-04-01T19:46:58.632Z,13.37
2019-04-01T19:49:30.520Z,16.20
2019-04-01T19:52:03.906Z,12.77
2019-04-01T19:54:35.618Z,11.23
2019-04-01T19:57:07.399Z,10.50
2019-04-01T19:59:39.168Z,15.63
2019-04-01T20:02:10.869Z,11.53
2019-04-01T20:04:42.507Z,10.83
2019-04-01T20:07:15.281Z,10.55
2019-04-01T20:09:48.630Z,10.87
2019-04-01T20:12:21.278Z,14.65
2019-04-01T20:14:53.013Z,13.87
2019-04-01T20:17:26.030Z,14.53
2019-04-01T20:19:57.897Z,13.60
2019-04-01T20:22:29.615Z,13.00
2019-04-01T20:25:01.647Z,12.57
2019-04-01T20:27:33.348Z,13.87
2019-04-01T20:30:09.113Z,14.80
2019-04-01T20:32:41.700Z,12.47
2019-04-01T20:35:23.315Z,12.95
2019-04-01T20:37:47.988Z,12.87
2019-04-01T20:40:20.543Z,12.07
2019-04-01T20:42:52.295Z,12.03
2019-04-01T20:45:23.914Z,8.97
2019-04-01T20:47:56.268Z,8.90
2019-04-01T20:50:29.145Z,10.80
2019-04-01T20:53:01.547Z,10.50
2019-04-01T20:55:33.625Z,9.00
2019-04-01T20:58:06.364Z,10.83
2019-04-01T21:00:39.061Z,11.57
2019-04-01T21:03:11.212Z,11.20
2019-04-01T21:05:43.045Z,11.40
2019-04-01T21:08:16.476Z,11.20
2019-04-01T21:10:48.743Z,11.37
2019-04-01T21:13:20.913Z,13.28
2019-04-01T21:15:55.713Z,9.77
2019-04-01T21:18:30.144Z,10.90
2019-04-01T21:21:04.658Z,10.87
2019-04-01T21:23:37.944Z,12.77
2019-04-01T21:26:10.584Z,11.88
2019-04-01T21:28:42.624Z,10.93
2019-04-01T21:31:14.872Z,11.87
2019-04-01T21:33:48.933Z,12.07
2019-04-01T21:36:21.375Z,11.33
2019-04-01T21:38:53.965Z,13.67
2019-04-01T21:41:26.305Z,14.87
2019-04-01T21:43:58.461Z,10.25
2019-04-01T21:46:30.354Z,11.23
2019-04-01T21:49:02.398Z,11.50
2019-04-01T21:51:34.711Z,11.20
2019-04-01T21:54:06.491Z,14.53
2019-04-01T21:56:38.648Z,10.87
2019-04-01T21:59:11.201Z,11.87
2019-04-01T22:01:43.399Z,11.83
2019-04-01T22:04:15.320Z,13.55
2019-04-01T22:06:47.578Z,16.10
2019-04-01T22:09:20.830Z,12.68
2019-04-01T22:11:52.769Z,12.10
2019-04-01T22:14:25.273Z,13.20
2019-04-01T22:16:58.514Z,13.83
2019-04-01T22:19:30.804Z,11.83
2019-04-01T22:22:03.380Z,11.40
2019-04-01T22:24:35.721Z,11.60
2019-04-01T22:27:07.657Z,10.73
2019-04-01T22:29:39.981Z,10.97
2019-04-01T22:32:13.169Z,11.18
2019-04-01T22:34:45.619Z,11.35
2019-04-01T22:37:27.069Z,10.93
2019-04-01T22:39:51.645Z,13.27
2019-04-01T22:42:23.906Z,12.07
2019-04-01T22:44:57.710Z,12.80
2019-04-01T22:47:30.046Z,11.50
2019-04-01T22:50:02.306Z,11.95
2019-04-01T22:52:35.369Z,10.57
2019-04-01T22:55:08.095Z,12.33
2019-04-01T22:57:40.395Z,12.58
2019-04-01T23:00:13.230Z,12.17
2019-04-01T23:02:46.952Z,13.13
2019-04-01T23:05:19.088Z,16.57
2019-04-01T23:07:51.236Z,13.77
2019-04-01T23:10:23.295Z,14.33
2019-04-01T23:12:55.328Z,14.57
2019-04-01T23:15:28.005Z,13.73
2019-04-01T23:17:59.915Z,17.83
2019-04-01T23:20:33.478Z,13.50
2019-04-01T23:23:06.323Z,15.30
2019-04-01T23:25:38.302Z,13.72
2019-04-01T23:28:10.376Z,15.20
2019-04-01T23:30:42.755Z,13.90
2019-04-01T23:33:16.081Z,16.90
2019-04-01T23:35:48.462Z,15.37
2019-04-01T23:38:20.370Z,13.13
2019-04-01T23:40:53.426Z,13.77
2019-04-01T23:43:26.241Z,14.97
2019-04-01T23:45:59.226Z,12.80
2019-04-01T23:48:32.273Z,13.97
2019-04-01T23:51:04.920Z,13.53
2019-04-01T23:53:37.249Z,13.53
2019-04-01T23:56:09.357Z,13.32
2019-04-01T23:58:41.894Z,14.40
